Time;durP1;ratioP1;P1;durP2;ratioP2;P2;SDS_P1;SDS_P2;PMS_P1;PMS_P2;Temp;Humidity;BMP_temperature;BMP_pressure;BME280_temperature;BME280_humidity;BME280_pressure;Samples;Min_cycle;Max_cycle;Signal;HPM_P1;HPM_P2
2022/11/15 00:01:21;;;;;;;5.55;5.10;;;;;;;;;;5005537;28;20022;-45
2022/11/15 00:03:51;;;;;;;7.90;5.75;;;;;;;;;;5007744;28;20444;-43
2022/11/15 00:06:16;;;;;;;5.78;4.97;;;;;;;;;;5010364;28;20033;-44
2022/11/15 00:08:41;;;;;;;4.68;3.92;;;;;;;;;;5010591;28;20041;-43
2022/11/15 00:11:10;;;;;;;4.80;4.40;;;;;;;;;;5008506;28;20038;-42
2022/11/15 00:13:36;;;;;;;4.63;4.22;;;;;;;;;;5011089;28;20049;-44
2022/11/15 00:16:02;;;;;;;4.45;4.15;;;;;;;;;;5009584;28;20034;-45
2022/11/15 00:18:28;;;;;;;5.25;4.75;;;;;;;;;;5010338;28;20026;-43
2022/11/15 00:20:53;;;;;;;4.47;4.03;;;;;;;;;;5008508;28;20395;-44
2022/11/15 00:23:18;;;;;;;4.22;3.92;;;;;;;;;;5009332;28;20060;-42
2022/11/15 00:25:44;;;;;;;6.63;4.43;;;;;;;;;;5007435;28;20053;-42
2022/11/15 00:28:09;;;;;;;4.93;4.53;;;;;;;;;;5008148;28;20041;-42
2022/11/15 00:30:35;;;;;;;5.53;4.88;;;;;;;;;;5008686;28;20541;-44
2022/11/15 00:33:06;;;;;;;5.40;4.90;;;;;;;;;;5008682;28;20394;-43
2022/11/15 00:35:33;;;;;;;5.20;4.80;;;;;;;;;;5008623;28;20018;-43
2022/11/15 00:37:59;;;;;;;5.38;4.88;;;;;;;;;;5008139;28;20440;-44
2022/11/15 00:40:24;;;;;;;5.97;5.25;;;;;;;;;;5009000;28;20105;-43
2022/11/15 00:42:50;;;;;;;5.43;4.95;;;;;;;;;;5008867;28;20518;-43
2022/11/15 00:45:15;;;;;;;5.60;5.07;;;;;;;;;;5010517;28;20109;-44
2022/11/15 00:47:44;;;;;;;5.78;5.28;;;;;;;;;;5009530;28;20104;-48
2022/11/15 00:50:10;;;;;;;6.20;5.60;;;;;;;;;;5007726;28;20523;-45
2022/11/15 00:52:35;;;;;;;6.00;5.28;;;;;;;;;;5010401;28;20040;-43
2022/11/15 00:55:01;;;;;;;5.35;4.90;;;;;;;;;;5009857;28;20129;-44
2022/11/15 00:57:26;;;;;;;7.88;6.10;;;;;;;;;;5007413;28;20484;-43
2022/11/15 00:59:51;;;;;;;5.90;5.25;;;;;;;;;;5007877;28;20092;-41
2022/11/15 01:02:17;;;;;;;5.88;5.38;;;;;;;;;;5010702;28;20044;-45
2022/11/15 01:04:42;;;;;;;6.32;5.35;;;;;;;;;;5007887;28;20099;-43
2022/11/15 01:07:07;;;;;;;6.20;5.70;;;;;;;;;;5010831;28;20902;-44
2022/11/15 01:09:33;;;;;;;6.43;5.82;;;;;;;;;;5009687;28;20041;-44
2022/11/15 01:11:58;;;;;;;6.22;5.72;;;;;;;;;;5007177;28;20057;-43
2022/11/15 01:14:23;;;;;;;6.18;5.68;;;;;;;;;;5004563;28;20038;-42
2022/11/15 01:16:49;;;;;;;6.70;6.13;;;;;;;;;;5008763;28;20125;-44
2022/11/15 01:19:14;;;;;;;5.97;5.47;;;;;;;;;;5008996;28;20034;-42
2022/11/15 01:21:39;;;;;;;5.95;5.32;;;;;;;;;;5008601;28;20410;-42
2022/11/15 01:24:05;;;;;;;6.65;5.93;;;;;;;;;;5009197;28;20070;-43
2022/11/15 01:26:30;;;;;;;6.55;5.95;;;;;;;;;;5008789;28;20033;-42
2022/11/15 01:28:56;;;;;;;6.47;5.88;;;;;;;;;;5005475;28;20046;-44
2022/11/15 01:31:21;;;;;;;6.57;5.97;;;;;;;;;;5002965;28;20064;-44
2022/11/15 01:33:47;;;;;;;6.97;6.22;;;;;;;;;;5008121;28;20038;-48
2022/11/15 01:36:16;;;;;;;6.50;5.72;;;;;;;;;;5008501;28;20113;-42
2022/11/15 01:38:42;;;;;;;8.20;6.53;;;;;;;;;;5007179;28;20062;-45
2022/11/15 01:41:16;;;;;;;7.07;6.38;;;;;;;;;;5006965;28;20069;-43
2022/11/15 01:43:41;;;;;;;6.22;5.72;;;;;;;;;;5004921;28;20073;-44
2022/11/15 01:46:23;;;;;;;6.88;6.18;;;;;;;;;;5006335;28;20030;-43
2022/11/15 01:48:52;;;;;;;6.20;5.67;;;;;;;;;;5006499;28;20042;-43
2022/11/15 01:51:18;;;;;;;6.18;5.57;;;;;;;;;;5004362;28;20092;-46
2022/11/15 01:53:47;;;;;;;6.07;5.47;;;;;;;;;;5006067;28;20108;-43
2022/11/15 01:56:27;;;;;;;6.03;5.35;;;;;;;;;;5004574;28;20037;-43
2022/11/15 01:58:56;;;;;;;6.55;5.30;;;;;;;;;;5005838;28;20486;-43
2022/11/15 02:01:25;;;;;;;6.13;5.53;;;;;;;;;;5008279;28;20029;-43
2022/11/15 02:03:57;;;;;;;5.25;4.85;;;;;;;;;;5005929;28;20049;-43
2022/11/15 02:06:23;;;;;;;5.82;5.03;;;;;;;;;;5004508;28;20461;-43
2022/11/15 02:08:49;;;;;;;5.30;4.80;;;;;;;;;;5006921;28;20137;-44
2022/11/15 02:11:15;;;;;;;5.47;4.97;;;;;;;;;;5004825;28;20034;-43
2022/11/15 02:13:41;;;;;;;4.95;4.55;;;;;;;;;;5008017;28;20042;-43
2022/11/15 02:16:21;;;;;;;6.18;5.57;;;;;;;;;;5008563;28;21546;-44
2022/11/15 02:18:59;;;;;;;5.30;4.90;;;;;;;;;;5007219;28;20049;-43
2022/11/15 02:21:51;;;;;;;5.25;4.78;;;;;;;;;;5005630;28;20414;-45
2022/11/15 02:25:07;;;;;;;5.63;5.13;;;;;;;;;;4999092;28;20041;-45
2022/11/15 02:27:48;;;;;;;5.20;4.80;;;;;;;;;;4985043;28;20046;-43
2022/11/15 02:30:19;;;;;;;4.82;4.43;;;;;;;;;;4985920;28;20038;-43
2022/11/15 02:32:52;;;;;;;8.25;4.45;;;;;;;;;;4971141;28;20049;-43
2022/11/15 02:35:42;;;;;;;4.85;4.43;;;;;;;;;;4985464;28;20544;-43
2022/11/15 02:38:19;;;;;;;5.25;4.47;;;;;;;;;;4983934;28;20046;-43
2022/11/15 02:40:58;;;;;;;7.53;4.20;;;;;;;;;;4987092;28;20522;-44
2022/11/15 02:43:57;;;;;;;5.10;4.60;;;;;;;;;;4988025;28;20089;-43
2022/11/15 02:49:32;;;;;;;4.53;4.13;;;;;;;;;;5003781;28;20056;-45
2022/11/15 02:51:57;;;;;;;5.05;4.65;;;;;;;;;;5002998;28;20586;-43
2022/11/15 02:54:25;;;;;;;4.93;4.43;;;;;;;;;;4998542;28;20038;-43
2022/11/15 02:56:56;;;;;;;5.43;4.22;;;;;;;;;;5005476;28;20034;-44
2022/11/15 02:59:24;;;;;;;4.15;3.75;;;;;;;;;;5006097;28;20521;-45
2022/11/15 03:01:55;;;;;;;4.82;4.40;;;;;;;;;;5002932;28;20478;-44
2022/11/15 03:04:48;;;;;;;4.40;4.00;;;;;;;;;;5005041;28;20663;-43
2022/11/15 03:07:25;;;;;;;4.70;3.90;;;;;;;;;;5005203;28;20026;-43
2022/11/15 03:09:54;;;;;;;4.50;4.13;;;;;;;;;;5007381;28;20042;-43
2022/11/15 03:12:22;;;;;;;4.45;4.15;;;;;;;;;;5005360;28;20541;-43
2022/11/15 03:15:10;;;;;;;4.35;3.95;;;;;;;;;;5005944;28;20084;-44
2022/11/15 03:17:48;;;;;;;4.47;4.07;;;;;;;;;;5005082;28;20132;-43
2022/11/15 03:20:16;;;;;;;4.45;4.05;;;;;;;;;;5005266;28;20065;-43
2022/11/15 03:22:44;;;;;;;4.22;3.92;;;;;;;;;;5002414;28;20033;-43
2022/11/15 03:25:14;;;;;;;4.47;4.18;;;;;;;;;;5005377;28;20034;-45
2022/11/15 03:27:44;;;;;;;5.65;3.95;;;;;;;;;;5006279;28;20022;-43
2022/11/15 03:30:11;;;;;;;4.43;4.03;;;;;;;;;;5003809;28;20038;-44
2022/11/15 03:32:46;;;;;;;4.70;4.40;;;;;;;;;;5003983;28;20058;-43
2022/11/15 03:35:20;;;;;;;4.20;3.90;;;;;;;;;;5003711;28;20038;-43
2022/11/15 03:37:59;;;;;;;4.13;3.75;;;;;;;;;;5005176;28;20030;-43
2022/11/15 03:40:34;;;;;;;5.93;3.95;;;;;;;;;;5006135;28;20049;-43
2022/11/15 03:43:08;;;;;;;4.93;4.43;;;;;;;;;;5002723;28;20084;-45
2022/11/15 03:45:43;;;;;;;5.78;4.07;;;;;;;;;;5004075;28;20026;-44
2022/11/15 03:48:22;;;;;;;4.60;4.20;;;;;;;;;;5004789;28;20068;-43
2022/11/15 03:50:48;;;;;;;4.05;3.75;;;;;;;;;;5007421;28;20041;-42
2022/11/15 03:53:14;;;;;;;4.43;4.07;;;;;;;;;;5005069;28;20057;-43
2022/11/15 03:55:39;;;;;;;4.28;3.90;;;;;;;;;;5007693;28;20778;-43
2022/11/15 03:58:05;;;;;;;4.55;4.18;;;;;;;;;;5006317;28;20030;-43
2022/11/15 04:00:30;;;;;;;3.90;3.60;;;;;;;;;;5006188;28;20033;-44
2022/11/15 04:02:56;;;;;;;4.63;4.20;;;;;;;;;;5003847;28;20049;-43
2022/11/15 04:05:21;;;;;;;4.13;3.83;;;;;;;;;;5006330;28;20418;-45
2022/11/15 04:07:47;;;;;;;4.28;3.88;;;;;;;;;;5005010;28;20492;-44
2022/11/15 04:10:13;;;;;;;4.30;4.00;;;;;;;;;;5006459;28;20059;-42
2022/11/15 04:12:43;;;;;;;5.55;3.67;;;;;;;;;;5006893;28;20026;-43
2022/11/15 04:15:13;;;;;;;4.38;3.97;;;;;;;;;;5005705;28;20056;-44
2022/11/15 04:17:38;;;;;;;4.30;4.00;;;;;;;;;;5007006;28;20030;-44
2022/11/15 04:25:36;;;;;;;5.10;4.30;;;;;;;;;;5005750;28;20415;-44
2022/11/15 04:28:01;;;;;;;5.45;3.80;;;;;;;;;;5004601;28;20113;-43
2022/11/15 04:30:26;;;;;;;4.50;4.10;;;;;;;;;;5006209;28;20088;-43
2022/11/15 04:32:52;;;;;;;4.72;4.32;;;;;;;;;;5005299;28;20031;-44
2022/11/15 04:35:17;;;;;;;4.68;4.20;;;;;;;;;;5003151;28;20088;-45
2022/11/15 04:37:42;;;;;;;6.60;4.10;;;;;;;;;;5003102;28;20034;-43
2022/11/15 04:40:08;;;;;;;4.20;3.80;;;;;;;;;;5003484;28;20045;-44
2022/11/15 04:42:33;;;;;;;4.20;3.90;;;;;;;;;;5005163;28;20441;-43
2022/11/15 04:44:59;;;;;;;4.10;3.80;;;;;;;;;;5006231;28;20613;-43
2022/11/15 04:47:24;;;;;;;4.35;4.03;;;;;;;;;;5006580;28;20028;-43
2022/11/15 04:49:49;;;;;;;4.18;3.88;;;;;;;;;;5007980;28;20037;-43
2022/11/15 04:52:15;;;;;;;7.07;3.78;;;;;;;;;;5006501;28;20156;-43
2022/11/15 04:54:41;;;;;;;4.30;4.00;;;;;;;;;;5010294;28;20034;-45
2022/11/15 04:57:07;;;;;;;4.47;4.07;;;;;;;;;;5006754;28;20486;-46
2022/11/15 04:59:32;;;;;;;6.32;3.90;;;;;;;;;;5009033;28;20046;-43
2022/11/15 05:01:57;;;;;;;4.38;3.95;;;;;;;;;;5007849;28;20034;-45
2022/11/15 05:04:23;;;;;;;6.20;4.22;;;;;;;;;;5009711;28;20041;-45
2022/11/15 05:06:51;;;;;;;4.07;3.78;;;;;;;;;;5007811;28;20487;-45
2022/11/15 05:09:21;;;;;;;5.75;4.45;;;;;;;;;;5006677;28;20042;-43
2022/11/15 05:11:47;;;;;;;8.63;4.18;;;;;;;;;;5007197;28;20037;-44
2022/11/15 05:14:12;;;;;;;4.57;3.70;;;;;;;;;;5008792;28;20040;-48
2022/11/15 05:16:38;;;;;;;4.50;4.00;;;;;;;;;;5006006;28;20033;-45
2022/11/15 05:19:04;;;;;;;4.35;4.05;;;;;;;;;;5006354;28;20042;-44
2022/11/15 05:21:30;;;;;;;4.25;3.95;;;;;;;;;;5008281;28;20149;-43
2022/11/15 05:23:56;;;;;;;5.05;4.00;;;;;;;;;;5003487;28;20054;-45
2022/11/15 05:26:21;;;;;;;4.65;4.07;;;;;;;;;;5006274;28;20030;-43
2022/11/15 05:28:51;;;;;;;4.25;3.95;;;;;;;;;;5003976;28;20103;-44
2022/11/15 05:31:16;;;;;;;4.32;3.92;;;;;;;;;;5003173;28;20731;-43
2022/11/15 05:33:43;;;;;;;4.53;4.13;;;;;;;;;;5006672;28;20041;-44
2022/11/15 05:36:27;;;;;;;4.47;4.18;;;;;;;;;;5010332;28;20478;-43
2022/11/15 05:38:53;;;;;;;7.65;4.38;;;;;;;;;;5005238;28;20045;-43
2022/11/15 05:41:24;;;;;;;3.97;3.67;;;;;;;;;;5007794;28;20041;-46
2022/11/15 05:43:50;;;;;;;4.00;3.70;;;;;;;;;;5004886;28;20046;-46
2022/11/15 05:46:16;;;;;;;5.43;4.25;;;;;;;;;;5006426;28;20049;-46
2022/11/15 05:48:44;;;;;;;4.55;4.10;;;;;;;;;;5006672;28;20046;-44
2022/11/15 05:51:13;;;;;;;5.07;4.60;;;;;;;;;;5007033;28;20568;-43
2022/11/15 05:53:39;;;;;;;4.57;4.07;;;;;;;;;;5007842;28;20541;-43
2022/11/15 05:56:06;;;;;;;4.97;4.47;;;;;;;;;;5008609;28;20117;-43
2022/11/15 05:58:32;;;;;;;4.30;4.00;;;;;;;;;;5003789;28;20541;-44
2022/11/15 06:00:59;;;;;;;4.47;4.15;;;;;;;;;;5006756;28;20149;-46
2022/11/15 06:03:24;;;;;;;4.13;3.72;;;;;;;;;;5006193;28;20034;-44
2022/11/15 06:05:50;;;;;;;5.22;4.82;;;;;;;;;;5004182;28;20048;-44
2022/11/15 06:08:15;;;;;;;4.82;4.32;;;;;;;;;;4999623;28;20042;-45
2022/11/15 06:10:41;;;;;;;4.75;4.35;;;;;;;;;;5005014;28;20022;-43
2022/11/15 06:13:06;;;;;;;4.32;4.03;;;;;;;;;;5003457;28;20037;-43
2022/11/15 06:15:33;;;;;;;5.20;4.63;;;;;;;;;;5004846;28;20022;-43
2022/11/15 06:17:59;;;;;;;6.07;4.28;;;;;;;;;;5007659;28;20068;-45
2022/11/15 06:20:26;;;;;;;5.15;4.70;;;;;;;;;;5007185;28;20026;-43
2022/11/15 06:22:56;;;;;;;5.20;4.80;;;;;;;;;;5004095;28;20619;-44
2022/11/15 06:25:22;;;;;;;8.80;4.60;;;;;;;;;;5003707;28;20073;-45
2022/11/15 06:27:57;;;;;;;6.00;5.10;;;;;;;;;;5002499;28;20065;-44
2022/11/15 06:30:25;;;;;;;5.80;4.53;;;;;;;;;;5001071;28;20065;-44
2022/11/15 06:32:50;;;;;;;7.28;4.20;;;;;;;;;;5004376;28;20168;-43
2022/11/15 06:35:16;;;;;;;6.40;4.30;;;;;;;;;;5005058;28;20124;-43
2022/11/15 06:37:42;;;;;;;4.88;4.47;;;;;;;;;;5007465;28;20026;-43
2022/11/15 06:40:09;;;;;;;6.68;4.38;;;;;;;;;;5003546;28;20082;-43
2022/11/15 06:42:34;;;;;;;4.88;4.47;;;;;;;;;;5006431;28;20050;-45
2022/11/15 06:45:00;;;;;;;8.80;4.40;;;;;;;;;;5005013;28;20049;-45
2022/11/15 06:47:25;;;;;;;4.95;4.32;;;;;;;;;;5008533;28;20025;-43
2022/11/15 06:49:50;;;;;;;4.90;4.50;;;;;;;;;;5000999;28;20723;-46
2022/11/15 06:52:18;;;;;;;6.53;5.13;;;;;;;;;;5002172;28;20142;-43
2022/11/15 06:54:43;;;;;;;7.32;5.70;;;;;;;;;;5005216;28;20620;-44
2022/11/15 06:57:09;;;;;;;9.93;4.90;;;;;;;;;;5004309;28;20069;-43
2022/11/15 06:59:34;;;;;;;5.43;4.68;;;;;;;;;;5005472;28;20124;-43
2022/11/15 07:01:59;;;;;;;4.38;4.05;;;;;;;;;;5006472;28;20041;-44
2022/11/15 07:04:25;;;;;;;4.30;3.90;;;;;;;;;;5005834;28;20391;-43
2022/11/15 07:06:50;;;;;;;5.65;4.55;;;;;;;;;;5005774;28;20099;-43
2022/11/15 07:09:15;;;;;;;4.63;3.97;;;;;;;;;;5006289;28;20041;-44
2022/11/15 07:11:41;;;;;;;4.78;4.38;;;;;;;;;;5007528;28;20034;-43
2022/11/15 07:14:07;;;;;;;6.90;4.60;;;;;;;;;;5004433;28;20049;-43
2022/11/15 07:16:32;;;;;;;4.95;4.45;;;;;;;;;;5005504;28;20494;-43
2022/11/15 07:18:57;;;;;;;4.57;3.92;;;;;;;;;;5006306;28;20112;-46
2022/11/15 07:21:23;;;;;;;4.40;4.10;;;;;;;;;;5006745;28;20038;-46
2022/11/15 07:23:49;;;;;;;4.57;4.18;;;;;;;;;;5001785;28;20067;-44
2022/11/15 07:26:14;;;;;;;8.90;4.45;;;;;;;;;;5000515;28;20025;-44
2022/11/15 07:28:39;;;;;;;4.93;4.32;;;;;;;;;;5001581;28;20124;-44
2022/11/15 07:31:07;;;;;;;5.15;4.20;;;;;;;;;;5002177;28;20034;-46
2022/11/15 07:33:33;;;;;;;4.55;4.18;;;;;;;;;;5002758;28;20414;-46
2022/11/15 07:36:01;;;;;;;4.97;4.28;;;;;;;;;;5005312;28;20050;-44
2022/11/15 07:38:27;;;;;;;4.55;4.03;;;;;;;;;;5004013;28;20179;-45
2022/11/15 07:40:57;;;;;;;4.38;4.00;;;;;;;;;;5004509;28;20045;-43
2022/11/15 07:43:23;;;;;;;4.45;4.15;;;;;;;;;;5005713;28;20521;-44
2022/11/15 07:45:48;;;;;;;6.82;4.53;;;;;;;;;;5004626;28;20026;-44
2022/11/15 07:48:14;;;;;;;4.43;4.03;;;;;;;;;;5007460;28;20042;-44
2022/11/15 07:50:42;;;;;;;4.85;4.22;;;;;;;;;;5005962;28;20467;-43
2022/11/15 07:53:09;;;;;;;4.72;4.32;;;;;;;;;;5006360;28;20083;-44
2022/11/15 07:55:34;;;;;;;5.72;4.47;;;;;;;;;;5005945;28;20022;-43
2022/11/15 07:58:08;;;;;;;5.80;4.20;;;;;;;;;;5003836;28;20505;-46
2022/11/15 08:00:35;;;;;;;5.10;4.22;;;;;;;;;;5007250;28;20360;-43
2022/11/15 08:03:07;;;;;;;7.40;4.68;;;;;;;;;;5006760;28;20460;-43
2022/11/15 08:05:33;;;;;;;5.18;4.22;;;;;;;;;;5006813;28;20116;-45
2022/11/15 08:07:59;;;;;;;5.50;4.72;;;;;;;;;;5006157;28;20025;-43
2022/11/15 08:10:25;;;;;;;5.18;4.68;;;;;;;;;;5006472;28;20034;-45
2022/11/15 08:13:04;;;;;;;4.82;4.43;;;;;;;;;;5007026;28;20045;-44
2022/11/15 08:15:31;;;;;;;5.00;4.55;;;;;;;;;;5001344;28;20030;-44
2022/11/15 08:17:58;;;;;;;5.05;4.50;;;;;;;;;;5005642;28;20034;-43
2022/11/15 08:20:25;;;;;;;10.52;4.47;;;;;;;;;;5005081;28;20037;-46
2022/11/15 08:22:50;;;;;;;5.80;4.55;;;;;;;;;;5007219;28;20037;-44
2022/11/15 08:25:16;;;;;;;4.70;4.30;;;;;;;;;;5006644;28;20026;-46
2022/11/15 08:27:41;;;;;;;5.35;4.82;;;;;;;;;;5008685;28;21268;-44
2022/11/15 08:30:07;;;;;;;5.25;4.63;;;;;;;;;;5009259;28;20072;-43
2022/11/15 08:32:32;;;;;;;5.32;4.57;;;;;;;;;;5006588;28;20037;-44
2022/11/15 08:34:58;;;;;;;4.90;4.40;;;;;;;;;;5008348;28;20038;-44
2022/11/15 08:37:23;;;;;;;8.15;4.60;;;;;;;;;;5010335;28;20108;-43
2022/11/15 08:39:49;;;;;;;4.90;4.45;;;;;;;;;;5009434;28;20041;-43
2022/11/15 08:42:15;;;;;;;5.20;4.70;;;;;;;;;;5009293;28;20034;-43
2022/11/15 08:44:41;;;;;;;7.93;5.07;;;;;;;;;;5006850;28;20453;-44
2022/11/15 08:47:07;;;;;;;5.85;4.70;;;;;;;;;;5009060;28;20041;-46
2022/11/15 08:49:32;;;;;;;8.88;4.63;;;;;;;;;;5010078;28;20611;-44
2022/11/15 08:51:58;;;;;;;6.93;5.10;;;;;;;;;;5009640;28;20026;-44
2022/11/15 08:54:23;;;;;;;8.25;4.60;;;;;;;;;;5008766;28;20058;-45
2022/11/15 08:56:48;;;;;;;7.35;4.63;;;;;;;;;;5010095;28;20033;-44
2022/11/15 08:59:14;;;;;;;5.45;4.80;;;;;;;;;;5007276;28;20044;-44
2022/11/15 09:01:39;;;;;;;6.38;5.00;;;;;;;;;;5009797;28;20037;-44
2022/11/15 09:04:04;;;;;;;5.22;4.53;;;;;;;;;;5010386;28;20034;-43
2022/11/15 09:06:30;;;;;;;6.60;4.90;;;;;;;;;;5009278;28;20029;-47
2022/11/15 09:08:56;;;;;;;9.75;5.10;;;;;;;;;;5009269;28;20077;-47
2022/11/15 09:11:23;;;;;;;4.95;4.32;;;;;;;;;;5010230;28;20482;-44
2022/11/15 09:13:49;;;;;;;5.38;4.63;;;;;;;;;;5008988;28;20398;-45
2022/11/15 09:16:15;;;;;;;6.15;4.32;;;;;;;;;;5008975;28;20037;-45
2022/11/15 09:18:41;;;;;;;6.28;4.05;;;;;;;;;;5008380;28;20038;-44
2022/11/15 09:21:07;;;;;;;6.70;4.75;;;;;;;;;;5009246;28;20072;-42
2022/11/15 09:23:32;;;;;;;6.13;4.00;;;;;;;;;;5008850;28;20030;-43
2022/11/15 09:26:03;;;;;;;5.13;4.28;;;;;;;;;;5008371;28;20026;-46
2022/11/15 09:28:29;;;;;;;7.80;4.35;;;;;;;;;;5022366;28;20560;-46
2022/11/15 09:31:00;;;;;;;6.45;4.10;;;;;;;;;;5006107;28;20037;-47
2022/11/15 09:33:26;;;;;;;5.57;4.20;;;;;;;;;;5008908;28;20053;-44
2022/11/15 09:35:52;;;;;;;4.75;4.35;;;;;;;;;;5008229;28;20030;-49
2022/11/15 09:38:18;;;;;;;5.45;4.40;;;;;;;;;;5006112;28;20101;-44
2022/11/15 09:40:51;;;;;;;5.25;4.20;;;;;;;;;;5008615;28;20056;-44
2022/11/15 09:43:40;;;;;;;5.05;4.13;;;;;;;;;;5007357;28;20129;-44
2022/11/15 09:49:01;;;;;;;5.10;3.95;;;;;;;;;;5035492;28;20613;-47
2022/11/15 09:51:34;;;;;;;9.52;5.18;;;;;;;;;;5014066;28;20034;-43
2022/11/15 09:53:59;;;;;;;6.50;3.80;;;;;;;;;;5008432;28;20038;-43
2022/11/15 09:56:29;;;;;;;5.28;4.28;;;;;;;;;;5005596;28;20402;-43
2022/11/15 09:59:16;;;;;;;5.65;4.00;;;;;;;;;;5012738;28;20062;-43
2022/11/15 10:02:04;;;;;;;5.20;4.13;;;;;;;;;;5022885;28;20034;-43
2022/11/15 10:04:31;;;;;;;5.60;4.10;;;;;;;;;;5024803;28;20045;-43
2022/11/15 10:07:06;;;;;;;5.95;4.43;;;;;;;;;;5022751;28;20061;-43
2022/11/15 10:09:45;;;;;;;11.10;4.53;;;;;;;;;;5021783;28;21766;-44
2022/11/15 10:12:12;;;;;;;6.38;5.00;;;;;;;;;;5024751;28;20115;-46
2022/11/15 10:14:38;;;;;;;5.45;4.25;;;;;;;;;;5024307;28;20034;-46
2022/11/15 10:17:27;;;;;;;5.85;4.43;;;;;;;;;;5024612;28;20033;-46
2022/11/15 10:19:56;;;;;;;11.98;4.00;;;;;;;;;;5039256;28;20041;-44
2022/11/15 16:39:12;;;;;;;10.82;3.97;;;;;;;;;;5041005;28;20622;-44
2022/11/15 16:41:38;;;;;;;9.47;4.17;;;;;;;;;;5041384;28;20405;-43
2022/11/15 16:44:03;;;;;;;6.13;4.00;;;;;;;;;;5037346;28;20041;-45
2022/11/15 16:46:29;;;;;;;8.15;4.13;;;;;;;;;;5042623;28;20033;-48
2022/11/15 16:48:54;;;;;;;6.28;3.83;;;;;;;;;;5039772;28;20128;-44
2022/11/15 16:51:20;;;;;;;8.27;4.57;;;;;;;;;;5041742;28;20048;-50
2022/11/15 16:53:48;;;;;;;6.95;4.50;;;;;;;;;;5033574;28;20038;-51
2022/11/15 16:56:27;;;;;;;8.00;4.32;;;;;;;;;;5037164;28;20509;-47
2022/11/15 16:58:53;;;;;;;4.28;3.90;;;;;;;;;;5031170;28;20042;-52
2022/11/15 17:01:26;;;;;;;6.00;4.28;;;;;;;;;;5037342;28;20032;-49
2022/11/15 17:03:52;;;;;;;10.57;4.45;;;;;;;;;;5038279;28;20397;-46
2022/11/15 17:06:18;;;;;;;6.55;4.47;;;;;;;;;;5040607;28;20029;-50
2022/11/15 17:08:47;;;;;;;7.68;4.47;;;;;;;;;;5033704;28;20045;-49
2022/11/15 17:11:15;;;;;;;11.35;3.90;;;;;;;;;;5033359;28;20082;-49
2022/11/15 17:13:40;;;;;;;9.65;4.38;;;;;;;;;;5031131;28;20485;-46
2022/11/15 17:16:12;;;;;;;6.65;4.15;;;;;;;;;;5038661;28;20040;-45
2022/11/15 17:18:39;;;;;;;10.23;3.97;;;;;;;;;;5031129;28;20048;-47
2022/11/15 17:21:12;;;;;;;8.88;4.28;;;;;;;;;;5039486;28;20500;-51
2022/11/15 17:23:37;;;;;;;6.78;3.90;;;;;;;;;;5042544;28;20128;-46
2022/11/15 17:26:04;;;;;;;4.95;3.60;;;;;;;;;;5038311;28;20175;-47
2022/11/15 17:28:34;;;;;;;7.28;3.95;;;;;;;;;;5033647;28;20040;-50
2022/11/15 17:31:00;;;;;;;9.50;4.25;;;;;;;;;;5039494;28;20088;-49
2022/11/15 17:33:25;;;;;;;10.88;4.78;;;;;;;;;;5035117;28;20096;-47
2022/11/15 17:35:56;;;;;;;15.38;4.40;;;;;;;;;;5037288;28;20025;-45
2022/11/15 17:38:22;;;;;;;9.48;4.38;;;;;;;;;;5041109;28;20037;-44
2022/11/15 17:40:48;;;;;;;15.82;4.78;;;;;;;;;;5038138;28;20036;-44
2022/11/15 17:43:13;;;;;;;8.13;4.93;;;;;;;;;;5034308;28;20029;-47
2022/11/15 17:45:41;;;;;;;5.15;4.30;;;;;;;;;;5029624;28;20122;-50
2022/11/15 17:48:07;;;;;;;7.18;4.25;;;;;;;;;;5036289;28;20048;-44
2022/11/15 17:50:32;;;;;;;5.88;3.90;;;;;;;;;;5021264;28;20466;-47
2022/11/15 17:52:59;;;;;;;7.40;3.80;;;;;;;;;;5015834;28;20038;-47
2022/11/15 17:55:24;;;;;;;7.30;3.67;;;;;;;;;;5020091;28;20490;-43
2022/11/15 17:57:49;;;;;;;7.38;3.85;;;;;;;;;;5018149;28;20052;-47
2022/11/15 18:00:18;;;;;;;17.70;5.20;;;;;;;;;;5013146;28;20580;-43
2022/11/15 18:02:43;;;;;;;8.05;3.90;;;;;;;;;;5020617;28;21235;-44
2022/11/15 18:05:09;;;;;;;9.00;4.57;;;;;;;;;;5017913;28;20518;-48
2022/11/15 18:07:34;;;;;;;13.65;4.53;;;;;;;;;;5026653;28;20021;-43
2022/11/15 18:09:59;;;;;;;8.32;4.38;;;;;;;;;;5017697;28;20041;-44
2022/11/15 18:12:25;;;;;;;7.47;3.90;;;;;;;;;;5024696;28;20381;-46
2022/11/15 18:14:50;;;;;;;5.53;4.60;;;;;;;;;;5020923;28;20034;-45
2022/11/15 18:17:17;;;;;;;4.82;3.70;;;;;;;;;;5026591;28;20040;-45
2022/11/15 18:19:43;;;;;;;6.72;4.07;;;;;;;;;;5021358;28;20033;-45
2022/11/15 18:22:09;;;;;;;8.93;4.47;;;;;;;;;;5026814;28;20030;-44
2022/11/15 18:24:35;;;;;;;7.93;4.70;;;;;;;;;;5023874;28;20034;-43
2022/11/15 18:27:02;;;;;;;10.48;5.35;;;;;;;;;;5025841;28;20048;-47
2022/11/15 18:29:28;;;;;;;12.38;5.30;;;;;;;;;;5016909;28;20034;-43
2022/11/15 18:31:54;;;;;;;12.57;6.53;;;;;;;;;;5018175;28;20025;-44
2022/11/15 18:34:21;;;;;;;9.77;5.68;;;;;;;;;;5037864;28;20029;-48
2022/11/15 18:36:49;;;;;;;7.18;4.35;;;;;;;;;;5022362;28;20060;-49
2022/11/15 18:39:15;;;;;;;8.90;4.55;;;;;;;;;;5028486;28;20042;-50
2022/11/15 18:41:41;;;;;;;6.25;4.28;;;;;;;;;;5025965;28;20982;-47
2022/11/15 18:44:07;;;;;;;5.95;3.67;;;;;;;;;;5027032;28;20048;-45
2022/11/15 18:46:32;;;;;;;7.18;4.38;;;;;;;;;;5028201;28;20017;-46
2022/11/15 18:49:00;;;;;;;6.05;4.15;;;;;;;;;;5029164;28;20045;-48
2022/11/15 18:51:29;;;;;;;9.00;4.00;;;;;;;;;;5025287;28;20022;-50
2022/11/15 18:53:56;;;;;;;8.63;4.50;;;;;;;;;;5030206;28;20040;-49
2022/11/15 18:56:23;;;;;;;6.88;3.83;;;;;;;;;;5023573;28;20047;-45
2022/11/15 18:58:54;;;;;;;6.00;3.97;;;;;;;;;;5021937;28;20045;-47
2022/11/15 19:01:25;;;;;;;10.52;4.07;;;;;;;;;;5026207;28;20029;-45
2022/11/15 19:03:53;;;;;;;7.63;4.07;;;;;;;;;;5026560;28;20371;-49
2022/11/15 19:06:21;;;;;;;5.88;4.07;;;;;;;;;;5027633;28;20034;-44
2022/11/15 19:08:49;;;;;;;9.25;4.60;;;;;;;;;;5025689;28;20034;-45
2022/11/15 19:11:22;;;;;;;7.03;3.92;;;;;;;;;;5027903;28;20029;-49
2022/11/15 19:13:52;;;;;;;9.90;4.95;;;;;;;;;;5026351;28;20033;-44
2022/11/15 19:16:17;;;;;;;7.22;3.72;;;;;;;;;;5028863;28;20079;-52
2022/11/15 19:18:43;;;;;;;6.82;4.53;;;;;;;;;;5022792;28;20424;-47
2022/11/15 19:21:10;;;;;;;8.40;5.70;;;;;;;;;;5022186;28;20091;-48
2022/11/15 19:23:38;;;;;;;8.32;4.85;;;;;;;;;;5011528;28;20453;-48
2022/11/15 19:26:05;;;;;;;5.00;4.22;;;;;;;;;;5018628;28;20022;-44
2022/11/15 19:28:31;;;;;;;7.97;4.70;;;;;;;;;;5020368;28;20040;-45
2022/11/15 19:31:12;;;;;;;6.05;4.25;;;;;;;;;;5019245;28;20041;-47
2022/11/15 19:33:38;;;;;;;6.75;4.50;;;;;;;;;;5019646;28;20042;-47
2022/11/15 19:36:06;;;;;;;6.70;4.07;;;;;;;;;;5021319;28;20031;-46
2022/11/15 19:38:33;;;;;;;6.93;4.18;;;;;;;;;;5018500;28;20080;-49
2022/11/15 19:41:04;;;;;;;7.38;5.13;;;;;;;;;;5021515;28;20175;-45
2022/11/15 19:43:30;;;;;;;6.63;4.57;;;;;;;;;;5020999;28;20561;-43
2022/11/15 19:45:58;;;;;;;7.88;5.20;;;;;;;;;;5024716;28;20231;-45
2022/11/15 19:48:23;;;;;;;8.07;4.65;;;;;;;;;;5026887;28;20452;-45
2022/11/15 19:50:49;;;;;;;11.32;4.20;;;;;;;;;;5026958;28;20100;-44
2022/11/15 19:53:15;;;;;;;5.22;3.80;;;;;;;;;;5018789;28;20167;-45
2022/11/15 19:55:40;;;;;;;7.40;4.20;;;;;;;;;;5021195;28;20754;-43
2022/11/15 19:58:05;;;;;;;4.30;3.90;;;;;;;;;;5021740;28;20044;-47
2022/11/15 20:00:31;;;;;;;8.00;3.58;;;;;;;;;;5025142;28;20381;-45
2022/11/15 20:02:56;;;;;;;5.40;3.80;;;;;;;;;;5019416;28;20069;-44
2022/11/15 20:05:22;;;;;;;4.40;3.47;;;;;;;;;;5027458;28;20035;-46
2022/11/15 20:07:48;;;;;;;5.25;3.42;;;;;;;;;;5027483;28;20026;-44
2022/11/15 20:10:13;;;;;;;5.55;3.40;;;;;;;;;;5026081;28;20468;-45
2022/11/15 20:12:39;;;;;;;6.10;3.38;;;;;;;;;;5025489;28;20025;-45
2022/11/15 20:15:04;;;;;;;3.47;2.90;;;;;;;;;;5022047;28;20025;-47
2022/11/15 20:17:30;;;;;;;6.38;3.30;;;;;;;;;;5025778;28;20033;-44
2022/11/15 20:19:57;;;;;;;8.57;3.30;;;;;;;;;;5028564;28;20501;-47
2022/11/15 20:22:23;;;;;;;7.43;3.33;;;;;;;;;;5025183;28;20037;-48
2022/11/15 20:24:48;;;;;;;6.05;2.63;;;;;;;;;;5024885;28;20049;-45
2022/11/15 20:27:14;;;;;;;8.43;3.28;;;;;;;;;;5023087;28;20036;-44
2022/11/15 20:29:39;;;;;;;4.65;3.10;;;;;;;;;;5026191;28;20072;-47
2022/11/15 20:32:04;;;;;;;4.80;3.30;;;;;;;;;;5026038;28;20041;-46
2022/11/15 20:34:30;;;;;;;3.78;3.15;;;;;;;;;;5026128;28;20612;-46
2022/11/15 20:36:56;;;;;;;10.50;3.97;;;;;;;;;;5023058;28;20038;-45
2022/11/15 20:39:22;;;;;;;6.07;3.03;;;;;;;;;;5025349;28;20437;-47
2022/11/15 20:41:47;;;;;;;6.22;3.20;;;;;;;;;;5020684;28;20121;-50
2022/11/15 20:44:13;;;;;;;4.32;3.25;;;;;;;;;;5019991;28;20125;-46
2022/11/15 20:46:38;;;;;;;8.13;3.20;;;;;;;;;;5028685;28;20025;-46
2022/11/15 20:49:05;;;;;;;11.02;3.33;;;;;;;;;;5025131;28;20044;-45
2022/11/15 20:51:30;;;;;;;5.18;3.13;;;;;;;;;;5027623;28;20037;-44
2022/11/15 20:53:56;;;;;;;5.53;3.05;;;;;;;;;;5024412;28;20042;-45
2022/11/15 20:56:22;;;;;;;7.38;3.30;;;;;;;;;;5024874;28;20133;-44
2022/11/15 20:58:49;;;;;;;6.28;3.05;;;;;;;;;;5029633;28;20393;-45
2022/11/15 21:01:16;;;;;;;10.07;3.40;;;;;;;;;;5020191;28;20494;-44
2022/11/15 21:03:42;;;;;;;3.47;2.80;;;;;;;;;;5026635;28;20504;-46
2022/11/15 21:06:08;;;;;;;5.07;2.75;;;;;;;;;;5027409;28;20037;-46
2022/11/15 21:14:01;;;;;;;5.25;3.35;;;;;;;;;;5022561;28;20053;-42
2022/11/15 21:16:27;;;;;;;4.20;3.30;;;;;;;;;;5025420;28;20029;-47
2022/11/15 21:18:52;;;;;;;8.98;2.83;;;;;;;;;;5024744;28;20044;-41
2022/11/15 21:21:17;;;;;;;3.13;2.55;;;;;;;;;;5025762;28;20304;-45